sensor_id;sensor_type;location;lat;lon;timestamp;P1;durP1;ratioP1;P2;durP2;ratioP2
72517;SDS011;60540;51.178;6.738;2023-11-19T00:02:21;3.08;;;0.95;;
72517;SDS011;60540;51.178;6.738;2023-11-19T00:04:47;2.92;;;1.10;;
72517;SDS011;60540;51.178;6.738;2023-11-19T00:07:13;1.75;;;0.90;;
72517;SDS011;60540;51.178;6.738;2023-11-19T00:09:39;1.45;;;0.82;;
72517;SDS011;60540;51.178;6.738;2023-11-19T00:12:05;2.63;;;1.38;;
72517;SDS011;60540;51.178;6.738;2023-11-19T00:14:32;2.65;;;1.05;;
72517;SDS011;60540;51.178;6.738;2023-11-19T00:16:58;2.05;;;1.02;;
72517;SDS011;60540;51.178;6.738;2023-11-19T00:19:24;2.35;;;1.20;;
72517;SDS011;60540;51.178;6.738;2023-11-19T00:21:50;1.73;;;0.77;;
72517;SDS011;60540;51.178;6.738;2023-11-19T00:24:16;1.98;;;1.00;;
72517;SDS011;60540;51.178;6.738;2023-11-19T00:26:42;3.25;;;1.00;;
72517;SDS011;60540;51.178;6.738;2023-11-19T00:29:08;2.80;;;1.10;;
72517;SDS011;60540;51.178;6.738;2023-11-19T00:31:34;1.90;;;0.95;;
72517;SDS011;60540;51.178;6.738;2023-11-19T00:34:00;2.83;;;1.30;;
72517;SDS011;60540;51.178;6.738;2023-11-19T00:36:27;2.13;;;1.10;;
72517;SDS011;60540;51.178;6.738;2023-11-19T00:38:53;2.05;;;0.90;;
72517;SDS011;60540;51.178;6.738;2023-11-19T00:41:22;1.95;;;0.90;;
72517;SDS011;60540;51.178;6.738;2023-11-19T00:43:48;2.65;;;0.95;;
72517;SDS011;60540;51.178;6.738;2023-11-19T00:46:14;1.48;;;0.80;;
72517;SDS011;60540;51.178;6.738;2023-11-19T00:48:40;3.03;;;0.90;;
72517;SDS011;60540;51.178;6.738;2023-11-19T00:51:06;2.30;;;0.80;;
72517;SDS011;60540;51.178;6.738;2023-11-19T00:53:32;2.25;;;0.80;;
72517;SDS011;60540;51.178;6.738;2023-11-19T00:55:59;1.63;;;0.88;;
72517;SDS011;60540;51.178;6.738;2023-11-19T00:58:25;1.55;;;0.70;;
72517;SDS011;60540;51.178;6.738;2023-11-19T01:00:51;0.95;;;0.70;;
72517;SDS011;60540;51.178;6.738;2023-11-19T01:03:17;1.38;;;0.70;;
72517;SDS011;60540;51.178;6.738;2023-11-19T01:05:43;1.67;;;0.50;;
72517;SDS011;60540;51.178;6.738;2023-11-19T01:10:38;0.95;;;0.50;;
72517;SDS011;60540;51.178;6.738;2023-11-19T01:13:04;1.40;;;0.50;;
72517;SDS011;60540;51.178;6.738;2023-11-19T01:15:34;1.80;;;0.70;;
72517;SDS011;60540;51.178;6.738;2023-11-19T01:18:00;2.08;;;0.52;;
72517;SDS011;60540;51.178;6.738;2023-11-19T01:20:27;0.90;;;0.65;;
72517;SDS011;60540;51.178;6.738;2023-11-19T01:22:53;1.25;;;0.70;;
72517;SDS011;60540;51.178;6.738;2023-11-19T01:25:19;1.35;;;0.52;;
72517;SDS011;60540;51.178;6.738;2023-11-19T01:27:44;1.15;;;0.60;;
72517;SDS011;60540;51.178;6.738;2023-11-19T01:30:10;1.30;;;0.55;;
72517;SDS011;60540;51.178;6.738;2023-11-19T01:32:39;1.52;;;0.75;;
72517;SDS011;60540;51.178;6.738;2023-11-19T01:35:05;2.00;;;0.70;;
72517;SDS011;60540;51.178;6.738;2023-11-19T01:37:31;1.83;;;0.68;;
72517;SDS011;60540;51.178;6.738;2023-11-19T01:39:57;0.95;;;0.90;;
72517;SDS011;60540;51.178;6.738;2023-11-19T01:42:23;0.52;;;0.47;;
72517;SDS011;60540;51.178;6.738;2023-11-19T01:44:56;2.33;;;0.90;;
72517;SDS011;60540;51.178;6.738;2023-11-19T01:47:23;2.20;;;0.55;;
72517;SDS011;60540;51.178;6.738;2023-11-19T01:49:49;0.82;;;0.55;;
72517;SDS011;60540;51.178;6.738;2023-11-19T01:52:16;2.63;;;0.88;;
72517;SDS011;60540;51.178;6.738;2023-11-19T01:54:42;2.80;;;0.82;;
72517;SDS011;60540;51.178;6.738;2023-11-19T01:57:08;1.80;;;0.80;;
72517;SDS011;60540;51.178;6.738;2023-11-19T01:59:34;2.10;;;0.88;;
72517;SDS011;60540;51.178;6.738;2023-11-19T02:02:00;2.10;;;0.90;;
72517;SDS011;60540;51.178;6.738;2023-11-19T02:04:26;2.67;;;0.90;;
72517;SDS011;60540;51.178;6.738;2023-11-19T02:06:51;2.13;;;0.95;;
72517;SDS011;60540;51.178;6.738;2023-11-19T02:09:19;4.35;;;1.17;;
72517;SDS011;60540;51.178;6.738;2023-11-19T02:11:45;3.40;;;1.33;;
72517;SDS011;60540;51.178;6.738;2023-11-19T02:14:20;5.90;;;1.30;;
72517;SDS011;60540;51.178;6.738;2023-11-19T02:16:48;5.70;;;1.20;;
72517;SDS011;60540;51.178;6.738;2023-11-19T02:19:14;2.72;;;1.10;;
72517;SDS011;60540;51.178;6.738;2023-11-19T02:21:40;4.50;;;1.55;;
72517;SDS011;60540;51.178;6.738;2023-11-19T02:24:07;4.97;;;1.15;;
72517;SDS011;60540;51.178;6.738;2023-11-19T02:29:17;4.78;;;1.63;;
72517;SDS011;60540;51.178;6.738;2023-11-19T02:31:42;4.20;;;1.27;;
72517;SDS011;60540;51.178;6.738;2023-11-19T02:34:10;3.78;;;1.30;;
72517;SDS011;60540;51.178;6.738;2023-11-19T02:36:37;6.35;;;1.45;;
72517;SDS011;60540;51.178;6.738;2023-11-19T02:39:03;6.93;;;1.65;;
72517;SDS011;60540;51.178;6.738;2023-11-19T02:41:29;9.38;;;2.58;;
72517;SDS011;60540;51.178;6.738;2023-11-19T02:43:55;5.22;;;2.08;;
72517;SDS011;60540;51.178;6.738;2023-11-19T02:46:21;5.22;;;1.33;;
72517;SDS011;60540;51.178;6.738;2023-11-19T02:48:46;7.53;;;1.75;;
72517;SDS011;60540;51.178;6.738;2023-11-19T02:51:12;6.35;;;1.50;;
72517;SDS011;60540;51.178;6.738;2023-11-19T02:53:38;4.95;;;1.50;;
72517;SDS011;60540;51.178;6.738;2023-11-19T02:56:05;3.90;;;1.30;;
72517;SDS011;60540;51.178;6.738;2023-11-19T02:58:44;5.93;;;1.52;;
72517;SDS011;60540;51.178;6.738;2023-11-19T03:03:49;6.85;;;1.63;;
72517;SDS011;60540;51.178;6.738;2023-11-19T03:06:20;7.25;;;1.80;;
72517;SDS011;60540;51.178;6.738;2023-11-19T03:08:47;5.38;;;1.70;;
72517;SDS011;60540;51.178;6.738;2023-11-19T03:11:13;5.30;;;1.80;;
72517;SDS011;60540;51.178;6.738;2023-11-19T03:13:39;8.50;;;2.08;;
72517;SDS011;60540;51.178;6.738;2023-11-19T03:16:05;6.90;;;1.75;;
72517;SDS011;60540;51.178;6.738;2023-11-19T03:18:31;7.22;;;1.98;;
72517;SDS011;60540;51.178;6.738;2023-11-19T03:20:56;6.15;;;1.90;;
72517;SDS011;60540;51.178;6.738;2023-11-19T03:25:49;6.28;;;1.60;;
72517;SDS011;60540;51.178;6.738;2023-11-19T03:28:15;5.78;;;2.00;;
72517;SDS011;60540;51.178;6.738;2023-11-19T03:30:41;7.65;;;2.38;;
72517;SDS011;60540;51.178;6.738;2023-11-19T03:33:07;7.90;;;1.75;;
72517;SDS011;60540;51.178;6.738;2023-11-19T03:35:33;6.68;;;1.77;;
72517;SDS011;60540;51.178;6.738;2023-11-19T03:37:58;8.43;;;2.10;;
72517;SDS011;60540;51.178;6.738;2023-11-19T03:40:24;7.10;;;2.58;;
72517;SDS011;60540;51.178;6.738;2023-11-19T03:42:50;7.60;;;1.70;;
72517;SDS011;60540;51.178;6.738;2023-11-19T03:45:16;7.97;;;1.90;;
72517;SDS011;60540;51.178;6.738;2023-11-19T03:47:42;6.65;;;2.15;;
72517;SDS011;60540;51.178;6.738;2023-11-19T03:50:08;7.70;;;1.70;;
72517;SDS011;60540;51.178;6.738;2023-11-19T03:52:34;7.82;;;1.42;;
72517;SDS011;60540;51.178;6.738;2023-11-19T03:55:00;8.43;;;1.80;;
72517;SDS011;60540;51.178;6.738;2023-11-19T03:57:27;10.32;;;1.70;;
72517;SDS011;60540;51.178;6.738;2023-11-19T04:02:20;7.93;;;1.90;;
72517;SDS011;60540;51.178;6.738;2023-11-19T04:04:45;10.02;;;1.70;;
72517;SDS011;60540;51.178;6.738;2023-11-19T04:07:11;10.65;;;2.08;;
72517;SDS011;60540;51.178;6.738;2023-11-19T04:09:37;6.10;;;1.90;;
72517;SDS011;60540;51.178;6.738;2023-11-19T04:12:03;11.13;;;1.98;;
72517;SDS011;60540;51.178;6.738;2023-11-19T04:14:29;10.43;;;1.90;;
72517;SDS011;60540;51.178;6.738;2023-11-19T04:16:54;15.23;;;2.33;;
72517;SDS011;60540;51.178;6.738;2023-11-19T04:19:20;9.75;;;2.38;;
72517;SDS011;60540;51.178;6.738;2023-11-19T04:21:47;10.85;;;3.00;;
72517;SDS011;60540;51.178;6.738;2023-11-19T04:24:13;9.45;;;2.33;;
72517;SDS011;60540;51.178;6.738;2023-11-19T04:26:48;8.88;;;1.75;;
72517;SDS011;60540;51.178;6.738;2023-11-19T04:29:14;14.40;;;2.67;;
72517;SDS011;60540;51.178;6.738;2023-11-19T04:31:42;9.68;;;2.10;;
72517;SDS011;60540;51.178;6.738;2023-11-19T04:34:09;16.98;;;2.28;;
72517;SDS011;60540;51.178;6.738;2023-11-19T04:36:36;9.82;;;2.45;;
72517;SDS011;60540;51.178;6.738;2023-11-19T04:39:03;7.88;;;1.75;;
72517;SDS011;60540;51.178;6.738;2023-11-19T04:41:45;7.78;;;1.77;;
72517;SDS011;60540;51.178;6.738;2023-11-19T04:44:11;11.82;;;2.45;;
72517;SDS011;60540;51.178;6.738;2023-11-19T04:46:37;9.50;;;2.33;;
72517;SDS011;60540;51.178;6.738;2023-11-19T04:49:02;5.60;;;2.05;;
72517;SDS011;60540;51.178;6.738;2023-11-19T04:51:28;9.15;;;1.98;;
72517;SDS011;60540;51.178;6.738;2023-11-19T04:53:54;10.73;;;1.90;;
72517;SDS011;60540;51.178;6.738;2023-11-19T04:56:20;8.65;;;2.35;;
72517;SDS011;60540;51.178;6.738;2023-11-19T04:58:48;10.35;;;1.92;;
72517;SDS011;60540;51.178;6.738;2023-11-19T05:01:14;5.60;;;1.90;;
72517;SDS011;60540;51.178;6.738;2023-11-19T05:03:43;7.35;;;1.98;;
72517;SDS011;60540;51.178;6.738;2023-11-19T05:06:09;7.60;;;2.25;;
72517;SDS011;60540;51.178;6.738;2023-11-19T05:08:35;13.13;;;2.60;;
72517;SDS011;60540;51.178;6.738;2023-11-19T05:11:01;10.23;;;2.05;;
72517;SDS011;60540;51.178;6.738;2023-11-19T05:13:26;10.00;;;3.08;;
72517;SDS011;60540;51.178;6.738;2023-11-19T05:15:52;8.75;;;2.03;;
72517;SDS011;60540;51.178;6.738;2023-11-19T05:18:18;10.68;;;2.47;;
72517;SDS011;60540;51.178;6.738;2023-11-19T05:20:44;9.43;;;2.25;;
72517;SDS011;60540;51.178;6.738;2023-11-19T05:23:11;8.82;;;2.05;;
72517;SDS011;60540;51.178;6.738;2023-11-19T05:25:36;9.98;;;1.83;;
72517;SDS011;60540;51.178;6.738;2023-11-19T05:28:02;8.18;;;1.88;;
72517;SDS011;60540;51.178;6.738;2023-11-19T05:30:28;9.90;;;2.45;;
72517;SDS011;60540;51.178;6.738;2023-11-19T05:32:54;8.70;;;1.95;;
72517;SDS011;60540;51.178;6.738;2023-11-19T05:35:19;5.75;;;1.88;;
72517;SDS011;60540;51.178;6.738;2023-11-19T05:37:45;8.93;;;2.33;;
72517;SDS011;60540;51.178;6.738;2023-11-19T05:40:11;8.50;;;2.15;;
72517;SDS011;60540;51.178;6.738;2023-11-19T05:42:40;8.23;;;2.20;;
72517;SDS011;60540;51.178;6.738;2023-11-19T05:45:06;13.20;;;2.40;;
72517;SDS011;60540;51.178;6.738;2023-11-19T05:49:58;9.77;;;2.00;;
72517;SDS011;60540;51.178;6.738;2023-11-19T05:52:24;9.30;;;2.10;;
72517;SDS011;60540;51.178;6.738;2023-11-19T05:54:50;13.93;;;2.15;;
72517;SDS011;60540;51.178;6.738;2023-11-19T05:57:17;13.00;;;2.15;;
72517;SDS011;60540;51.178;6.738;2023-11-19T05:59:49;5.32;;;2.10;;
72517;SDS011;60540;51.178;6.738;2023-11-19T06:02:15;12.25;;;2.67;;
72517;SDS011;60540;51.178;6.738;2023-11-19T06:04:41;11.85;;;2.58;;
72517;SDS011;60540;51.178;6.738;2023-11-19T06:07:09;8.23;;;1.70;;
72517;SDS011;60540;51.178;6.738;2023-11-19T06:09:35;11.38;;;2.85;;
72517;SDS011;60540;51.178;6.738;2023-11-19T06:12:01;6.50;;;1.45;;
72517;SDS011;60540;51.178;6.738;2023-11-19T06:14:31;10.93;;;1.98;;
72517;SDS011;60540;51.178;6.738;2023-11-19T06:16:57;9.43;;;2.15;;
72517;SDS011;60540;51.178;6.738;2023-11-19T06:19:22;9.85;;;2.85;;
72517;SDS011;60540;51.178;6.738;2023-11-19T06:21:50;11.90;;;2.17;;
72517;SDS011;60540;51.178;6.738;2023-11-19T06:24:16;12.90;;;2.38;;
72517;SDS011;60540;51.178;6.738;2023-11-19T06:26:42;14.98;;;2.90;;
72517;SDS011;60540;51.178;6.738;2023-11-19T06:29:07;10.05;;;2.10;;
72517;SDS011;60540;51.178;6.738;2023-11-19T06:31:33;8.57;;;2.60;;
72517;SDS011;60540;51.178;6.738;2023-11-19T06:33:59;13.40;;;2.17;;
72517;SDS011;60540;51.178;6.738;2023-11-19T06:36:25;11.93;;;2.28;;
72517;SDS011;60540;51.178;6.738;2023-11-19T06:38:52;12.98;;;3.00;;
72517;SDS011;60540;51.178;6.738;2023-11-19T06:41:18;13.05;;;2.63;;
72517;SDS011;60540;51.178;6.738;2023-11-19T06:43:43;10.35;;;2.08;;
72517;SDS011;60540;51.178;6.738;2023-11-19T06:46:16;11.00;;;2.53;;
72517;SDS011;60540;51.178;6.738;2023-11-19T06:48:42;6.35;;;1.80;;
72517;SDS011;60540;51.178;6.738;2023-11-19T06:51:10;13.10;;;2.42;;
72517;SDS011;60540;51.178;6.738;2023-11-19T06:53:36;13.40;;;2.67;;
72517;SDS011;60540;51.178;6.738;2023-11-19T06:56:02;16.63;;;2.63;;
72517;SDS011;60540;51.178;6.738;2023-11-19T06:58:32;16.80;;;2.78;;
72517;SDS011;60540;51.178;6.738;2023-11-19T07:01:01;14.05;;;2.55;;
72517;SDS011;60540;51.178;6.738;2023-11-19T07:03:27;10.32;;;2.20;;
72517;SDS011;60540;51.178;6.738;2023-11-19T07:05:52;9.63;;;2.20;;
72517;SDS011;60540;51.178;6.738;2023-11-19T07:08:19;12.50;;;2.17;;
72517;SDS011;60540;51.178;6.738;2023-11-19T07:10:45;13.05;;;2.60;;
72517;SDS011;60540;51.178;6.738;2023-11-19T07:13:12;9.30;;;2.10;;
72517;SDS011;60540;51.178;6.738;2023-11-19T07:15:38;7.72;;;1.80;;
72517;SDS011;60540;51.178;6.738;2023-11-19T07:18:04;14.20;;;2.92;;
72517;SDS011;60540;51.178;6.738;2023-11-19T07:20:29;12.45;;;2.38;;
72517;SDS011;60540;51.178;6.738;2023-11-19T07:22:56;11.63;;;2.55;;
72517;SDS011;60540;51.178;6.738;2023-11-19T07:25:22;15.25;;;3.10;;
72517;SDS011;60540;51.178;6.738;2023-11-19T07:27:49;14.05;;;2.80;;
72517;SDS011;60540;51.178;6.738;2023-11-19T07:30:14;13.98;;;2.45;;
72517;SDS011;60540;51.178;6.738;2023-11-19T07:32:40;14.45;;;2.70;;
72517;SDS011;60540;51.178;6.738;2023-11-19T07:35:06;11.25;;;2.20;;
72517;SDS011;60540;51.178;6.738;2023-11-19T07:37:32;11.55;;;2.45;;
72517;SDS011;60540;51.178;6.738;2023-11-19T07:39:58;10.45;;;2.25;;
72517;SDS011;60540;51.178;6.738;2023-11-19T07:42:24;13.98;;;2.63;;
72517;SDS011;60540;51.178;6.738;2023-11-19T07:44:50;13.80;;;2.53;;
72517;SDS011;60540;51.178;6.738;2023-11-19T07:47:16;11.70;;;2.17;;
72517;SDS011;60540;51.178;6.738;2023-11-19T07:49:42;12.55;;;2.38;;
72517;SDS011;60540;51.178;6.738;2023-11-19T07:52:09;13.13;;;2.30;;
72517;SDS011;60540;51.178;6.738;2023-11-19T07:54:35;13.02;;;2.97;;
72517;SDS011;60540;51.178;6.738;2023-11-19T07:57:00;10.80;;;2.63;;
72517;SDS011;60540;51.178;6.738;2023-11-19T07:59:26;9.15;;;2.15;;
72517;SDS011;60540;51.178;6.738;2023-11-19T08:01:52;14.30;;;2.38;;
72517;SDS011;60540;51.178;6.738;2023-11-19T08:04:18;10.25;;;2.15;;
72517;SDS011;60540;51.178;6.738;2023-11-19T08:06:44;16.75;;;2.38;;
72517;SDS011;60540;51.178;6.738;2023-11-19T08:09:10;16.02;;;2.88;;
72517;SDS011;60540;51.178;6.738;2023-11-19T08:11:42;9.93;;;2.83;;
72517;SDS011;60540;51.178;6.738;2023-11-19T08:14:07;13.30;;;2.50;;
72517;SDS011;60540;51.178;6.738;2023-11-19T08:16:34;13.40;;;1.95;;
72517;SDS011;60540;51.178;6.738;2023-11-19T08:18:59;11.93;;;2.35;;
72517;SDS011;60540;51.178;6.738;2023-11-19T08:21:25;10.77;;;2.47;;
72517;SDS011;60540;51.178;6.738;2023-11-19T08:23:52;14.93;;;2.35;;
72517;SDS011;60540;51.178;6.738;2023-11-19T08:26:18;8.52;;;2.28;;
72517;SDS011;60540;51.178;6.738;2023-11-19T08:28:44;9.68;;;2.08;;
72517;SDS011;60540;51.178;6.738;2023-11-19T08:31:10;9.15;;;2.20;;
72517;SDS011;60540;51.178;6.738;2023-11-19T08:33:35;15.18;;;2.22;;
72517;SDS011;60540;51.178;6.738;2023-11-19T08:36:01;8.48;;;2.40;;
72517;SDS011;60540;51.178;6.738;2023-11-19T08:38:29;13.20;;;2.75;;
72517;SDS011;60540;51.178;6.738;2023-11-19T08:40:55;10.13;;;2.13;;
72517;SDS011;60540;51.178;6.738;2023-11-19T08:43:26;12.88;;;2.65;;
72517;SDS011;60540;51.178;6.738;2023-11-19T08:45:52;14.38;;;3.22;;
72517;SDS011;60540;51.178;6.738;2023-11-19T08:48:18;8.82;;;2.08;;
72517;SDS011;60540;51.178;6.738;2023-11-19T08:50:44;13.23;;;2.22;;
72517;SDS011;60540;51.178;6.738;2023-11-19T08:53:10;12.77;;;2.67;;
72517;SDS011;60540;51.178;6.738;2023-11-19T08:55:36;11.73;;;2.35;;
72517;SDS011;60540;51.178;6.738;2023-11-19T08:58:02;14.15;;;2.05;;
72517;SDS011;60540;51.178;6.738;2023-11-19T09:00:28;10.20;;;2.58;;
72517;SDS011;60540;51.178;6.738;2023-11-19T09:02:55;11.13;;;2.22;;
72517;SDS011;60540;51.178;6.738;2023-11-19T09:05:20;10.40;;;2.70;;
72517;SDS011;60540;51.178;6.738;2023-11-19T09:07:46;13.80;;;2.08;;
72517;SDS011;60540;51.178;6.738;2023-11-19T09:10:12;9.75;;;2.33;;
72517;SDS011;60540;51.178;6.738;2023-11-19T09:12:37;13.57;;;2.63;;
72517;SDS011;60540;51.178;6.738;2023-11-19T09:15:03;14.60;;;2.70;;
72517;SDS011;60540;51.178;6.738;2023-11-19T09:17:29;16.95;;;2.72;;
72517;SDS011;60540;51.178;6.738;2023-11-19T09:19:55;17.48;;;3.60;;
72517;SDS011;60540;51.178;6.738;2023-11-19T09:22:21;13.93;;;2.60;;
72517;SDS011;60540;51.178;6.738;2023-11-19T09:24:47;14.20;;;2.67;;
72517;SDS011;60540;51.178;6.738;2023-11-19T09:27:13;8.93;;;2.33;;
72517;SDS011;60540;51.178;6.738;2023-11-19T09:29:39;17.77;;;3.33;;
72517;SDS011;60540;51.178;6.738;2023-11-19T09:32:05;13.73;;;2.60;;
72517;SDS011;60540;51.178;6.738;2023-11-19T09:34:31;11.68;;;2.20;;
72517;SDS011;60540;51.178;6.738;2023-11-19T09:36:57;10.98;;;2.08;;
72517;SDS011;60540;51.178;6.738;2023-11-19T09:39:23;13.77;;;2.05;;
72517;SDS011;60540;51.178;6.738;2023-11-19T09:41:48;13.63;;;3.00;;
72517;SDS011;60540;51.178;6.738;2023-11-19T09:44:15;11.82;;;2.65;;
72517;SDS011;60540;51.178;6.738;2023-11-19T09:46:43;19.23;;;2.95;;
72517;SDS011;60540;51.178;6.738;2023-11-19T09:49:10;19.45;;;3.65;;
72517;SDS011;60540;51.178;6.738;2023-11-19T09:51:36;19.83;;;2.85;;
72517;SDS011;60540;51.178;6.738;2023-11-19T09:54:02;14.45;;;2.50;;
72517;SDS011;60540;51.178;6.738;2023-11-19T09:56:28;10.40;;;2.15;;
72517;SDS011;60540;51.178;6.738;2023-11-19T09:58:55;14.65;;;2.45;;
72517;SDS011;60540;51.178;6.738;2023-11-19T10:01:21;11.15;;;2.08;;
72517;SDS011;60540;51.178;6.738;2023-11-19T10:03:47;11.20;;;1.95;;
72517;SDS011;60540;51.178;6.738;2023-11-19T10:06:13;21.30;;;2.65;;
72517;SDS011;60540;51.178;6.738;2023-11-19T10:08:40;9.65;;;2.63;;
72517;SDS011;60540;51.178;6.738;2023-11-19T10:11:07;15.25;;;3.13;;
72517;SDS011;60540;51.178;6.738;2023-11-19T10:13:36;13.07;;;3.30;;
72517;SDS011;60540;51.178;6.738;2023-11-19T10:16:09;11.52;;;2.65;;
72517;SDS011;60540;51.178;6.738;2023-11-19T10:18:37;12.18;;;2.80;;
72517;SDS011;60540;51.178;6.738;2023-11-19T10:21:04;9.05;;;2.33;;
72517;SDS011;60540;51.178;6.738;2023-11-19T10:23:31;9.55;;;2.35;;
72517;SDS011;60540;51.178;6.738;2023-11-19T10:26:03;13.00;;;2.47;;
72517;SDS011;60540;51.178;6.738;2023-11-19T10:28:38;14.07;;;2.13;;
72517;SDS011;60540;51.178;6.738;2023-11-19T10:31:05;10.20;;;2.00;;
72517;SDS011;60540;51.178;6.738;2023-11-19T10:33:31;11.82;;;2.58;;
72517;SDS011;60540;51.178;6.738;2023-11-19T10:35:57;8.02;;;2.10;;
72517;SDS011;60540;51.178;6.738;2023-11-19T10:38:23;12.10;;;2.38;;
72517;SDS011;60540;51.178;6.738;2023-11-19T10:40:50;11.50;;;2.95;;
72517;SDS011;60540;51.178;6.738;2023-11-19T10:43:16;16.90;;;2.65;;
72517;SDS011;60540;51.178;6.738;2023-11-19T10:45:42;13.18;;;2.53;;
72517;SDS011;60540;51.178;6.738;2023-11-19T10:48:08;11.52;;;2.47;;
72517;SDS011;60540;51.178;6.738;2023-11-19T10:50:35;11.95;;;2.55;;
72517;SDS011;60540;51.178;6.738;2023-11-19T10:53:02;12.35;;;3.05;;
72517;SDS011;60540;51.178;6.738;2023-11-19T10:55:30;11.65;;;2.17;;
72517;SDS011;60540;51.178;6.738;2023-11-19T10:58:01;14.40;;;3.10;;
72517;SDS011;60540;51.178;6.738;2023-11-19T11:01:16;11.48;;;2.05;;
72517;SDS011;60540;51.178;6.738;2023-11-19T11:03:18;10.52;;;2.35;;
72517;SDS011;60540;51.178;6.738;2023-11-19T11:05:49;14.60;;;3.05;;
72517;SDS011;60540;51.178;6.738;2023-11-19T11:08:16;12.85;;;2.25;;
72517;SDS011;60540;51.178;6.738;2023-11-19T11:10:44;10.00;;;2.65;;
72517;SDS011;60540;51.178;6.738;2023-11-19T11:13:11;10.98;;;2.22;;
72517;SDS011;60540;51.178;6.738;2023-11-19T11:15:39;11.00;;;2.17;;
72517;SDS011;60540;51.178;6.738;2023-11-19T11:18:08;10.43;;;2.10;;
72517;SDS011;60540;51.178;6.738;2023-11-19T11:20:34;9.00;;;1.92;;
72517;SDS011;60540;51.178;6.738;2023-11-19T11:25:39;8.57;;;2.00;;
72517;SDS011;60540;51.178;6.738;2023-11-19T11:28:30;9.95;;;1.70;;
72517;SDS011;60540;51.178;6.738;2023-11-19T11:39:39;11.50;;;2.65;;
72517;SDS011;60540;51.178;6.738;2023-11-19T11:45:00;12.48;;;1.77;;
72517;SDS011;60540;51.178;6.738;2023-11-19T11:50:08;10.73;;;2.30;;
72517;SDS011;60540;51.178;6.738;2023-11-19T11:53:12;12.95;;;2.30;;
72517;SDS011;60540;51.178;6.738;2023-11-19T11:56:08;8.70;;;2.17;;
72517;SDS011;60540;51.178;6.738;2023-11-19T11:58:31;11.82;;;2.88;;
72517;SDS011;60540;51.178;6.738;2023-11-19T12:00:58;9.07;;;2.20;;
72517;SDS011;60540;51.178;6.738;2023-11-19T12:03:27;8.77;;;2.20;;
72517;SDS011;60540;51.178;6.738;2023-11-19T12:05:54;8.40;;;2.53;;
72517;SDS011;60540;51.178;6.738;2023-11-19T12:08:25;10.00;;;2.22;;
72517;SDS011;60540;51.178;6.738;2023-11-19T12:10:53;9.43;;;1.85;;
72517;SDS011;60540;51.178;6.738;2023-11-19T12:13:24;8.90;;;2.17;;
72517;SDS011;60540;51.178;6.738;2023-11-19T12:18:26;7.40;;;1.63;;
72517;SDS011;60540;51.178;6.738;2023-11-19T12:20:53;11.35;;;2.08;;
72517;SDS011;60540;51.178;6.738;2023-11-19T12:23:22;10.93;;;1.83;;
72517;SDS011;60540;51.178;6.738;2023-11-19T12:25:48;9.57;;;1.75;;
72517;SDS011;60540;51.178;6.738;2023-11-19T12:28:15;9.68;;;2.10;;
72517;SDS011;60540;51.178;6.738;2023-11-19T12:30:44;10.30;;;1.83;;
72517;SDS011;60540;51.178;6.738;2023-11-19T12:33:11;10.70;;;2.47;;
72517;SDS011;60540;51.178;6.738;2023-11-19T12:35:40;11.02;;;2.70;;
72517;SDS011;60540;51.178;6.738;2023-11-19T12:38:21;9.35;;;1.98;;
72517;SDS011;60540;51.178;6.738;2023-11-19T12:41:09;9.80;;;1.73;;
72517;SDS011;60540;51.178;6.738;2023-11-19T12:43:37;8.13;;;1.83;;
72517;SDS011;60540;51.178;6.738;2023-11-19T12:46:03;6.63;;;1.90;;
72517;SDS011;60540;51.178;6.738;2023-11-19T12:48:42;7.30;;;1.90;;
72517;SDS011;60540;51.178;6.738;2023-11-19T12:51:08;6.32;;;1.65;;
72517;SDS011;60540;51.178;6.738;2023-11-19T12:53:47;7.00;;;1.60;;
72517;SDS011;60540;51.178;6.738;2023-11-19T12:56:20;9.25;;;1.90;;
72517;SDS011;60540;51.178;6.738;2023-11-19T12:58:47;13.80;;;1.92;;
72517;SDS011;60540;51.178;6.738;2023-11-19T13:01:17;6.80;;;1.77;;
72517;SDS011;60540;51.178;6.738;2023-11-19T13:03:45;9.68;;;1.77;;
72517;SDS011;60540;51.178;6.738;2023-11-19T13:06:11;6.35;;;1.85;;
72517;SDS011;60540;51.178;6.738;2023-11-19T13:08:45;9.25;;;2.22;;
72517;SDS011;60540;51.178;6.738;2023-11-19T13:11:13;8.00;;;2.10;;
72517;SDS011;60540;51.178;6.738;2023-11-19T13:13:55;9.35;;;2.92;;
72517;SDS011;60540;51.178;6.738;2023-11-19T13:16:22;9.57;;;2.53;;
72517;SDS011;60540;51.178;6.738;2023-11-19T13:18:48;8.07;;;1.70;;
72517;SDS011;60540;51.178;6.738;2023-11-19T13:21:13;8.45;;;1.85;;
72517;SDS011;60540;51.178;6.738;2023-11-19T13:23:39;6.00;;;1.77;;
72517;SDS011;60540;51.178;6.738;2023-11-19T13:26:05;6.90;;;1.95;;
72517;SDS011;60540;51.178;6.738;2023-11-19T13:28:31;11.77;;;2.30;;
72517;SDS011;60540;51.178;6.738;2023-11-19T13:30:57;10.23;;;2.00;;
72517;SDS011;60540;51.178;6.738;2023-11-19T13:33:23;8.13;;;1.83;;
72517;SDS011;60540;51.178;6.738;2023-11-19T13:35:50;7.28;;;1.73;;
72517;SDS011;60540;51.178;6.738;2023-11-19T13:38:16;6.00;;;1.50;;
72517;SDS011;60540;51.178;6.738;2023-11-19T13:40:41;10.02;;;2.67;;
72517;SDS011;60540;51.178;6.738;2023-11-19T13:43:07;8.30;;;2.10;;
72517;SDS011;60540;51.178;6.738;2023-11-19T13:45:33;7.38;;;1.65;;
72517;SDS011;60540;51.178;6.738;2023-11-19T13:47:59;8.98;;;1.90;;
72517;SDS011;60540;51.178;6.738;2023-11-19T13:50:24;13.35;;;2.60;;
72517;SDS011;60540;51.178;6.738;2023-11-19T13:52:51;8.10;;;2.30;;
72517;SDS011;60540;51.178;6.738;2023-11-19T13:55:17;7.68;;;2.03;;
72517;SDS011;60540;51.178;6.738;2023-11-19T13:57:43;13.30;;;2.42;;
72517;SDS011;60540;51.178;6.738;2023-11-19T14:00:10;7.70;;;1.88;;
72517;SDS011;60540;51.178;6.738;2023-11-19T14:02:41;10.30;;;1.95;;
72517;SDS011;60540;51.178;6.738;2023-11-19T14:05:08;10.93;;;2.38;;
72517;SDS011;60540;51.178;6.738;2023-11-19T14:07:36;10.98;;;2.42;;
72517;SDS011;60540;51.178;6.738;2023-11-19T14:10:05;7.63;;;1.83;;
72517;SDS011;60540;51.178;6.738;2023-11-19T14:12:32;12.68;;;2.33;;
72517;SDS011;60540;51.178;6.738;2023-11-19T14:14:58;9.68;;;1.90;;
72517;SDS011;60540;51.178;6.738;2023-11-19T14:17:25;12.23;;;2.15;;
72517;SDS011;60540;51.178;6.738;2023-11-19T14:19:52;9.70;;;3.05;;
72517;SDS011;60540;51.178;6.738;2023-11-19T14:22:18;9.05;;;2.25;;
72517;SDS011;60540;51.178;6.738;2023-11-19T14:24:43;8.38;;;2.03;;
72517;SDS011;60540;51.178;6.738;2023-11-19T14:27:10;11.13;;;2.30;;
72517;SDS011;60540;51.178;6.738;2023-11-19T14:29:36;9.50;;;2.00;;
72517;SDS011;60540;51.178;6.738;2023-11-19T14:32:02;15.15;;;2.63;;
72517;SDS011;60540;51.178;6.738;2023-11-19T14:34:29;9.70;;;2.35;;
72517;SDS011;60540;51.178;6.738;2023-11-19T14:36:56;9.02;;;2.10;;
72517;SDS011;60540;51.178;6.738;2023-11-19T14:39:22;17.75;;;2.85;;
72517;SDS011;60540;51.178;6.738;2023-11-19T14:41:47;9.50;;;2.17;;
72517;SDS011;60540;51.178;6.738;2023-11-19T14:44:14;10.68;;;1.95;;
72517;SDS011;60540;51.178;6.738;2023-11-19T14:46:40;8.70;;;2.10;;
72517;SDS011;60540;51.178;6.738;2023-11-19T14:49:06;8.77;;;2.13;;
72517;SDS011;60540;51.178;6.738;2023-11-19T14:51:38;8.63;;;2.47;;
72517;SDS011;60540;51.178;6.738;2023-11-19T14:54:04;11.05;;;2.28;;
72517;SDS011;60540;51.178;6.738;2023-11-19T14:58:56;8.38;;;2.10;;
72517;SDS011;60540;51.178;6.738;2023-11-19T15:01:21;9.57;;;1.90;;
72517;SDS011;60540;51.178;6.738;2023-11-19T15:03:47;8.32;;;1.52;;
72517;SDS011;60540;51.178;6.738;2023-11-19T15:06:13;7.85;;;1.95;;
72517;SDS011;60540;51.178;6.738;2023-11-19T15:08:39;7.78;;;2.17;;
72517;SDS011;60540;51.178;6.738;2023-11-19T15:11:05;9.20;;;1.90;;
72517;SDS011;60540;51.178;6.738;2023-11-19T15:13:31;10.18;;;2.10;;
72517;SDS011;60540;51.178;6.738;2023-11-19T15:15:58;10.27;;;2.25;;
72517;SDS011;60540;51.178;6.738;2023-11-19T15:18:23;6.07;;;1.80;;
72517;SDS011;60540;51.178;6.738;2023-11-19T15:20:49;9.43;;;2.13;;